createdAt,value
2018-03-28T00:00:59.324Z,2.4
2018-03-28T00:06:26.324Z,2.4
2018-03-28T00:11:53.221Z,2.3
2018-03-28T00:17:20.210Z,2.3
2018-03-28T00:22:47.095Z,2.2
2018-03-28T00:28:15.039Z,2.2
2018-03-28T00:33:41.982Z,2.2
2018-03-28T00:39:08.851Z,2.2
2018-03-28T00:44:36.783Z,2.3
2018-03-28T00:50:03.734Z,2.3
2018-03-28T00:55:31.629Z,2.3
2018-03-28T01:00:58.559Z,2.4
2018-03-28T01:06:26.469Z,2.5
2018-03-28T01:11:53.464Z,2.6
2018-03-28T01:17:20.396Z,2.6
2018-03-28T01:22:47.561Z,2.6
2018-03-28T01:28:15.256Z,2.7
2018-03-28T01:33:42.223Z,2.7
2018-03-28T01:39:09.194Z,2.7
2018-03-28T01:44:36.157Z,2.7
2018-03-28T01:50:03.261Z,2.7
2018-03-28T01:55:31.085Z,2.7
2018-03-28T02:00:59.001Z,2.7
2018-03-28T02:06:26.008Z,2.8
2018-03-28T02:11:53.935Z,2.8
2018-03-28T02:17:21.925Z,2.8
2018-03-28T02:22:48.862Z,2.8
2018-03-28T02:28:16.837Z,2.8
2018-03-28T02:33:44.795Z,2.8
2018-03-28T02:39:12.768Z,2.7
2018-03-28T02:44:40.743Z,2.7
2018-03-28T02:50:07.794Z,2.7
2018-03-28T02:55:34.637Z,2.7
2018-03-28T03:01:01.727Z,2.7
2018-03-28T03:06:29.526Z,2.7
2018-03-28T03:11:56.481Z,2.7
2018-03-28T03:17:24.438Z,2.7
2018-03-28T03:22:52.429Z,2.7
2018-03-28T03:28:20.343Z,2.7
2018-03-28T03:33:48.301Z,2.6
2018-03-28T03:39:15.223Z,2.6
2018-03-28T03:44:43.175Z,2.6
2018-03-28T03:50:11.153Z,2.6
2018-03-28T03:55:39.108Z,2.5
2018-03-28T04:01:07.008Z,2.5
2018-03-28T04:06:34.945Z,2.5
2018-03-28T04:12:02.929Z,2.5
2018-03-28T04:17:29.856Z,2.5
2018-03-28T04:22:57.792Z,2.4
2018-03-28T04:28:24.730Z,2.4
2018-03-28T04:33:52.688Z,2.4
2018-03-28T04:39:20.815Z,2.4
2018-03-28T04:44:47.636Z,2.3
2018-03-28T04:50:15.507Z,2.3
2018-03-28T04:55:43.392Z,2.2
2018-03-28T05:01:11.293Z,2.2
2018-03-28T05:06:39.286Z,2.2
2018-03-28T05:12:07.223Z,2.2
2018-03-28T05:17:34.102Z,2.2
2018-03-28T05:23:01.113Z,2.2
2018-03-28T05:28:27.970Z,2.2
2018-03-28T05:33:55.806Z,2.2
2018-03-28T05:39:22.739Z,2.2
2018-03-28T05:44:50.715Z,2.3
2018-03-28T05:50:17.582Z,2.3
2018-03-28T05:55:45.474Z,2.3
2018-03-28T06:01:13.371Z,2.4
2018-03-28T06:06:41.337Z,2.4
2018-03-28T06:12:08.265Z,2.4
2018-03-28T06:17:35.169Z,2.4
2018-03-28T06:23:03.144Z,2.4
2018-03-28T06:28:31.089Z,2.5
2018-03-28T06:33:58.994Z,2.5
2018-03-28T06:39:25.938Z,2.5
2018-03-28T06:44:52.877Z,2.5
2018-03-28T06:50:19.790Z,2.6
2018-03-28T06:55:46.741Z,2.6
2018-03-28T07:01:13.721Z,2.6
2018-03-28T07:06:40.623Z,2.6
2018-03-28T07:12:07.570Z,2.7
2018-03-28T07:17:35.669Z,2.7
2018-03-28T07:23:03.484Z,2.8
2018-03-28T07:28:31.451Z,2.8
2018-03-28T07:33:59.411Z,2.9
2018-03-28T07:39:26.392Z,2.9
2018-03-28T07:44:54.333Z,3
2018-03-28T07:50:21.287Z,3
2018-03-28T07:55:48.316Z,3.1
2018-03-28T08:01:15.294Z,3.1
2018-03-28T08:06:43.274Z,3.2
2018-03-28T08:12:11.251Z,3.2
2018-03-28T08:17:39.355Z,3.3
2018-03-28T08:23:06.254Z,3.4
2018-03-28T08:28:34.231Z,3.4
2018-03-28T08:34:01.234Z,3.5
2018-03-28T08:39:28.244Z,3.5
2018-03-28T08:44:55.261Z,3.6
2018-03-28T08:50:22.331Z,3.6
2018-03-28T08:55:49.890Z,3.6
2018-03-28T09:01:16.301Z,3.6
2018-03-28T09:06:43.294Z,3.5
2018-03-28T09:12:11.103Z,3.5
2018-03-28T09:17:38.317Z,3.6
2018-03-28T09:23:05.352Z,3.6
2018-03-28T09:28:32.414Z,3.7
2018-03-28T09:34:00.405Z,3.8
2018-03-28T09:39:27.436Z,4
2018-03-28T09:44:55.473Z,4
2018-03-28T09:50:23.526Z,3.9
2018-03-28T09:55:51.632Z,3.8
2018-03-28T10:01:18.627Z,3.7
2018-03-28T10:06:46.754Z,3.6
2018-03-28T10:12:14.604Z,3.6
2018-03-28T10:17:42.651Z,3.6
2018-03-28T10:23:10.724Z,3.7
2018-03-28T10:28:38.696Z,3.6
2018-03-28T10:34:05.643Z,3.6
2018-03-28T10:39:33.663Z,3.5
2018-03-28T10:45:00.691Z,3.6
2018-03-28T10:50:28.673Z,3.6
2018-03-28T10:55:56.692Z,3.6
2018-03-28T11:01:23.729Z,3.7
2018-03-28T11:06:51.821Z,3.7
2018-03-28T11:12:19.730Z,3.8
2018-03-28T11:17:47.841Z,3.8
2018-03-28T11:23:14.859Z,3.9
2018-03-28T11:28:41.932Z,4.1
2018-03-28T11:34:09.966Z,4.2
2018-03-28T11:39:37.053Z,4.3
2018-03-28T11:45:04.121Z,4.5
2018-03-28T11:50:31.481Z,4.6
2018-03-28T11:55:59.395Z,4.9
2018-03-28T12:01:27.435Z,5.1
2018-03-28T12:06:55.624Z,5.4
2018-03-28T12:12:23.700Z,5.2
2018-03-28T12:17:50.883Z,5.1
2018-03-28T12:23:17.975Z,5.2
2018-03-28T12:28:45.127Z,5.3
2018-03-28T12:34:12.283Z,5.1
2018-03-28T12:39:40.446Z,4.8
2018-03-28T12:45:08.500Z,4.6
2018-03-28T12:50:36.576Z,4.4
2018-03-28T12:56:04.683Z,4.3
2018-03-28T13:01:31.754Z,4.3
2018-03-28T13:06:58.796Z,4.3
2018-03-28T13:12:25.860Z,4.4
2018-03-28T13:17:53.933Z,4.4
2018-03-28T13:23:21.051Z,4.3
2018-03-28T13:28:49.170Z,4.1
2018-03-28T13:34:16.091Z,4
2018-03-28T13:39:44.093Z,3.8
2018-03-28T13:45:11.123Z,3.8
2018-03-28T13:50:39.216Z,3.7
2018-03-28T13:56:06.163Z,3.8
2018-03-28T14:01:33.174Z,3.7
2018-03-28T14:07:00.225Z,3.7
2018-03-28T14:12:28.287Z,3.6
2018-03-28T14:17:55.195Z,3.5
2018-03-28T14:23:23.250Z,3.4
2018-03-28T14:28:51.424Z,3.4
2018-03-28T14:34:19.193Z,3.3
2018-03-28T14:39:46.190Z,3.2
2018-03-28T14:45:14.183Z,3.2
2018-03-28T14:50:41.106Z,3.2
2018-03-28T14:56:09.105Z,3.1
2018-03-28T15:01:36.084Z,3.1
2018-03-28T15:07:03.039Z,3.1
2018-03-28T15:12:29.991Z,3
2018-03-28T15:17:57.975Z,2.9
2018-03-28T15:23:24.952Z,2.9
2018-03-28T15:28:51.856Z,2.9
2018-03-28T15:34:20.000Z,2.7
2018-03-28T15:39:47.827Z,2.7
2018-03-28T15:45:15.734Z,2.6
2018-03-28T15:50:42.643Z,2.6
2018-03-28T15:56:10.666Z,2.6
2018-03-28T16:01:37.541Z,2.5
2018-03-28T16:07:04.453Z,2.5
2018-03-28T16:12:32.386Z,2.5
2018-03-28T16:17:59.354Z,2.5
2018-03-28T16:23:26.230Z,2.5
2018-03-28T16:28:53.138Z,2.4
2018-03-28T16:34:20.041Z,2.3
2018-03-28T16:39:47.982Z,2.3
2018-03-28T16:45:14.923Z,2.3
2018-03-28T16:50:42.792Z,2.3
2018-03-28T16:56:10.708Z,2.2
2018-03-28T17:01:37.652Z,2.2
2018-03-28T17:07:04.562Z,2.2
2018-03-28T17:12:32.482Z,2.1
2018-03-28T17:17:59.377Z,2.1
2018-03-28T17:23:27.307Z,2.1
2018-03-28T17:28:54.169Z,2.1
2018-03-28T17:34:22.065Z,2
2018-03-28T17:39:49.048Z,2.1
2018-03-28T17:45:15.864Z,2
2018-03-28T17:50:43.711Z,1.9
2018-03-28T17:56:10.793Z,1.8
2018-03-28T18:01:37.662Z,1.6
2018-03-28T18:07:05.361Z,1.5
2018-03-28T18:12:32.235Z,1.4
2018-03-28T18:17:59.062Z,1.3
2018-03-28T18:23:25.972Z,1.3
2018-03-28T18:28:52.871Z,1.2
2018-03-28T18:34:20.699Z,1.1
2018-03-28T18:39:47.380Z,1.1
2018-03-28T18:45:15.250Z,1
2018-03-28T18:50:43.104Z,1
2018-03-28T18:56:09.903Z,0.9
2018-03-28T19:01:37.758Z,0.8
2018-03-28T19:07:05.656Z,0.8
2018-03-28T19:12:32.306Z,0.8
2018-03-28T19:17:59.120Z,0.8
2018-03-28T19:23:25.924Z,0.7
2018-03-28T19:28:53.762Z,0.7
2018-03-28T19:34:20.620Z,0.7
2018-03-28T19:39:47.274Z,0.7
2018-03-28T19:45:14.066Z,0.6
2018-03-28T19:50:41.880Z,0.6
2018-03-28T19:56:09.610Z,0.6
2018-03-28T20:01:36.382Z,0.6
2018-03-28T20:07:03.170Z,0.6
2018-03-28T20:12:30.924Z,0.5
2018-03-28T20:17:58.712Z,0.5
2018-03-28T20:23:25.557Z,0.5
2018-03-28T20:23:26.390Z,0.5
2018-03-28T20:28:52.363Z,0.5
2018-03-28T20:34:19.009Z,0.4
2018-03-28T20:39:45.785Z,0.5
2018-03-28T20:45:13.540Z,0.5
2018-03-28T20:50:40.599Z,0.4
2018-03-28T20:56:08.063Z,0.4
2018-03-28T21:01:34.834Z,0.4
2018-03-28T21:07:01.599Z,0.4
2018-03-28T21:12:29.472Z,0.4
2018-03-28T21:17:56.125Z,0.4
2018-03-28T21:23:22.869Z,0.4
2018-03-28T21:28:50.715Z,0.4
2018-03-28T21:34:17.504Z,0.4
2018-03-28T21:39:44.199Z,0.4
2018-03-28T21:45:10.964Z,0.4
2018-03-28T21:50:37.722Z,0.4
2018-03-28T21:56:04.580Z,0.4
2018-03-28T22:01:31.263Z,0.4
2018-03-28T22:06:59.038Z,0.4
2018-03-28T22:12:26.777Z,0.3
2018-03-28T22:17:53.534Z,0.4
2018-03-28T22:23:21.295Z,0.3
2018-03-28T22:28:48.038Z,0.4
2018-03-28T22:34:15.032Z,0.4
2018-03-28T22:39:41.782Z,0.4
2018-03-28T22:45:08.332Z,0.4
2018-03-28T22:50:35.147Z,0.3
2018-03-28T22:56:02.909Z,0.3
2018-03-28T23:01:29.659Z,0.3
2018-03-28T23:06:57.435Z,0.3
2018-03-28T23:12:25.192Z,0.3
2018-03-28T23:17:52.013Z,0.3
2018-03-28T23:23:18.674Z,0.3
2018-03-28T23:28:46.457Z,0.3
2018-03-28T23:34:14.231Z,0.3
2018-03-28T23:39:41.974Z,0.4
2018-03-28T23:45:08.716Z,0.4
2018-03-28T23:50:36.697Z,0.4
2018-03-28T23:56:03.242Z,0.4
